Time;durP1;ratioP1;P1;durP2;ratioP2;P2;SDS_P1;SDS_P2;PMS_P1;PMS_P2;Temp;Humidity;BMP_temperature;BMP_pressure;BME280_temperature;BME280_humidity;BME280_pressure;Samples;Min_cycle;Max_cycle;Signal;HPM_P1;HPM_P2
2023/07/02 09:35:19;;;;;;;9.05;5.38;;;;;;;;;;5096939;27;20568;-73
2023/07/02 09:37:46;;;;;;;9.50;5.47;;;;;;;;;;5116152;27;20224;-73
2023/07/02 09:40:11;;;;;;;10.27;5.40;;;;;;;;;;5115789;27;20220;-71
2023/07/02 09:42:38;;;;;;;10.32;5.65;;;;;;;;;;5080766;28;20217;-71
2023/07/02 09:45:07;;;;;;;9.35;5.30;;;;;;;;;;5082498;28;20299;-72
2023/07/02 09:47:33;;;;;;;7.18;5.35;;;;;;;;;;5063093;28;20221;-72
2023/07/02 09:50:01;;;;;;;7.82;5.57;;;;;;;;;;5067916;28;20214;-72
2023/07/02 09:52:29;;;;;;;7.50;5.57;;;;;;;;;;5065765;28;20223;-72
2023/07/02 09:54:55;;;;;;;10.35;5.40;;;;;;;;;;5080809;28;20630;-71
2023/07/02 09:57:27;;;;;;;9.85;5.40;;;;;;;;;;5076283;28;20247;-72
2023/07/02 09:59:52;;;;;;;10.18;5.57;;;;;;;;;;5100851;28;20217;-72
2023/07/02 10:02:18;;;;;;;9.88;5.88;;;;;;;;;;5075038;28;20217;-71
2023/07/02 10:04:47;;;;;;;10.25;6.28;;;;;;;;;;5071449;28;20632;-72
2023/07/02 10:07:13;;;;;;;9.00;4.82;;;;;;;;;;5093251;28;20266;-72
2023/07/02 10:09:41;;;;;;;8.32;5.55;;;;;;;;;;5084605;28;20312;-71
2023/07/02 10:12:22;;;;;;;11.68;6.60;;;;;;;;;;5080207;28;20727;-72
2023/07/02 10:14:54;;;;;;;10.35;6.35;;;;;;;;;;5066950;28;20628;-71
2023/07/02 10:17:34;;;;;;;10.30;6.20;;;;;;;;;;5078022;28;20225;-72
2023/07/02 10:20:06;;;;;;;9.15;6.45;;;;;;;;;;5080260;28;20217;-72
2023/07/02 10:22:52;;;;;;;10.13;6.53;;;;;;;;;;5085318;28;20237;-73
2023/07/02 10:25:27;;;;;;;9.25;5.63;;;;;;;;;;5081974;28;20301;-72
2023/07/02 10:27:52;;;;;;;9.77;6.28;;;;;;;;;;5091590;28;20263;-72
2023/07/02 10:30:18;;;;;;;9.48;6.10;;;;;;;;;;5079298;28;20253;-73
2023/07/02 10:32:43;;;;;;;9.27;5.60;;;;;;;;;;5065310;28;20211;-72
2023/07/02 10:35:18;;;;;;;8.43;5.70;;;;;;;;;;5112591;27;20214;-71
2023/07/02 10:37:43;;;;;;;10.13;6.60;;;;;;;;;;5096341;28;20754;-72
2023/07/02 10:40:12;;;;;;;8.88;6.25;;;;;;;;;;5114472;27;20217;-72
2023/07/02 10:42:52;;;;;;;14.05;5.75;;;;;;;;;;5094271;28;20218;-72
2023/07/02 10:45:18;;;;;;;11.93;6.70;;;;;;;;;;5054689;28;20218;-72
2023/07/02 10:47:43;;;;;;;11.20;6.18;;;;;;;;;;5047741;28;20214;-72
2023/07/02 10:50:19;;;;;;;16.42;6.65;;;;;;;;;;5047983;28;20725;-71
2023/07/02 10:52:47;;;;;;;10.85;5.90;;;;;;;;;;5066926;28;20224;-71
2023/07/02 10:55:21;;;;;;;10.45;6.05;;;;;;;;;;5058434;28;20223;-72
2023/07/02 10:57:48;;;;;;;11.98;6.82;;;;;;;;;;5074205;28;20288;-71
2023/07/02 11:00:14;;;;;;;10.30;6.28;;;;;;;;;;5063209;28;20599;-71
2023/07/02 11:02:39;;;;;;;8.50;6.13;;;;;;;;;;5073740;28;20233;-72
2023/07/02 11:05:12;;;;;;;13.75;6.20;;;;;;;;;;5044502;28;20218;-72
2023/07/02 11:07:43;;;;;;;10.20;6.72;;;;;;;;;;5064783;28;20236;-72
2023/07/02 11:10:09;;;;;;;9.45;6.15;;;;;;;;;;5057934;28;20316;-72
2023/07/02 11:12:35;;;;;;;8.18;5.22;;;;;;;;;;5061506;28;20758;-72
2023/07/02 11:15:14;;;;;;;7.80;5.22;;;;;;;;;;5081258;28;20220;-74
2023/07/02 11:17:44;;;;;;;7.80;4.40;;;;;;;;;;5056486;28;20744;-72
2023/07/02 11:20:11;;;;;;;9.65;4.47;;;;;;;;;;5078065;28;20244;-73
2023/07/02 11:22:39;;;;;;;8.75;4.72;;;;;;;;;;5072933;28;20279;-72
2023/07/02 11:25:20;;;;;;;8.38;4.85;;;;;;;;;;5060699;28;20708;-72
2023/07/02 11:27:48;;;;;;;8.23;5.60;;;;;;;;;;5059654;28;20229;-73
2023/07/02 11:30:16;;;;;;;9.35;5.60;;;;;;;;;;5064346;28;20213;-73
2023/07/02 11:32:48;;;;;;;13.27;6.15;;;;;;;;;;5075305;28;20219;-72
2023/07/02 11:35:16;;;;;;;10.43;6.10;;;;;;;;;;5066974;28;20234;-72
2023/07/02 11:37:42;;;;;;;10.32;6.20;;;;;;;;;;5049660;28;20234;-73
2023/07/02 11:40:08;;;;;;;11.68;6.28;;;;;;;;;;5075923;28;20223;-73
2023/07/02 11:42:34;;;;;;;14.88;6.13;;;;;;;;;;5050052;28;20270;-72
2023/07/02 11:45:01;;;;;;;9.43;5.70;;;;;;;;;;5047748;28;20684;-73
2023/07/02 11:47:29;;;;;;;8.38;6.20;;;;;;;;;;5061116;28;20305;-74
2023/07/02 11:49:55;;;;;;;10.60;6.50;;;;;;;;;;5044363;28;20215;-74
2023/07/02 11:52:21;;;;;;;10.88;5.78;;;;;;;;;;5068408;28;20237;-74
2023/07/02 11:54:49;;;;;;;8.70;5.35;;;;;;;;;;5072499;28;20307;-73
2023/07/02 11:57:14;;;;;;;8.35;5.22;;;;;;;;;;5081063;28;20226;-73
2023/07/02 11:59:45;;;;;;;10.57;5.40;;;;;;;;;;5097034;28;20244;-73
2023/07/02 12:02:12;;;;;;;10.80;5.00;;;;;;;;;;5083748;28;20308;-73
2023/07/02 12:04:38;;;;;;;8.05;5.20;;;;;;;;;;5091750;28;20219;-73
2023/07/02 12:07:04;;;;;;;7.60;4.75;;;;;;;;;;5060558;28;20275;-74
2023/07/02 12:09:32;;;;;;;6.85;4.95;;;;;;;;;;5078556;28;20584;-72
2023/07/02 12:12:00;;;;;;;7.90;4.85;;;;;;;;;;5057347;28;20679;-73
2023/07/02 12:14:25;;;;;;;7.82;4.72;;;;;;;;;;5096952;27;20228;-73
2023/07/02 12:16:53;;;;;;;7.72;5.10;;;;;;;;;;5096835;28;20222;-73
2023/07/02 12:19:19;;;;;;;11.02;5.40;;;;;;;;;;5095808;27;20230;-73
2023/07/02 12:21:44;;;;;;;12.38;4.95;;;;;;;;;;5084711;28;20638;-73
2023/07/02 12:24:10;;;;;;;8.10;5.10;;;;;;;;;;5088841;28;20274;-73
2023/07/02 12:26:36;;;;;;;8.35;5.00;;;;;;;;;;5069549;28;20230;-74
2023/07/02 12:29:02;;;;;;;8.75;5.07;;;;;;;;;;5045519;28;20211;-74
2023/07/02 12:31:30;;;;;;;11.07;5.40;;;;;;;;;;5070935;28;20217;-72
2023/07/02 12:33:58;;;;;;;7.30;4.50;;;;;;;;;;5051835;28;20245;-73
2023/07/02 12:36:26;;;;;;;6.93;4.60;;;;;;;;;;5083365;28;20249;-73
2023/07/02 12:38:54;;;;;;;8.35;4.50;;;;;;;;;;5059768;28;20217;-74
2023/07/02 12:41:21;;;;;;;6.43;4.28;;;;;;;;;;5075980;28;20222;-73
2023/07/02 12:43:49;;;;;;;7.05;4.28;;;;;;;;;;5051552;28;20213;-74
2023/07/02 12:46:17;;;;;;;7.60;4.20;;;;;;;;;;5058987;28;20222;-72
2023/07/02 12:48:42;;;;;;;6.70;4.18;;;;;;;;;;5096887;27;20270;-74
2023/07/02 12:51:08;;;;;;;5.85;4.18;;;;;;;;;;5052236;28;20211;-74
2023/07/02 12:53:33;;;;;;;4.93;3.63;;;;;;;;;;5053480;28;20569;-74
2023/07/02 12:55:59;;;;;;;8.52;4.00;;;;;;;;;;5070474;28;20221;-74
2023/07/02 12:58:24;;;;;;;5.05;3.20;;;;;;;;;;5077750;28;20317;-75
2023/07/02 13:00:52;;;;;;;6.13;3.05;;;;;;;;;;5072615;28;20786;-73
2023/07/02 13:03:22;;;;;;;3.67;2.80;;;;;;;;;;5063804;28;20211;-74
2023/07/02 13:05:48;;;;;;;4.55;2.90;;;;;;;;;;5054136;28;20227;-74
2023/07/02 13:08:14;;;;;;;4.70;2.75;;;;;;;;;;5060960;28;20216;-72
2023/07/02 13:10:44;;;;;;;3.88;2.80;;;;;;;;;;5058507;28;20261;-73
2023/07/02 13:13:09;;;;;;;6.07;2.90;;;;;;;;;;5078280;28;20241;-73
2023/07/02 13:15:39;;;;;;;4.07;2.75;;;;;;;;;;5098361;28;20433;-74
2023/07/02 13:18:10;;;;;;;7.03;3.05;;;;;;;;;;5096415;28;20309;-75
2023/07/02 13:20:35;;;;;;;5.10;2.75;;;;;;;;;;5046934;28;20245;-73
2023/07/02 13:23:05;;;;;;;5.05;2.90;;;;;;;;;;5050300;28;20636;-73
2023/07/02 13:25:31;;;;;;;5.10;3.00;;;;;;;;;;5097256;28;20277;-74
2023/07/02 13:27:59;;;;;;;3.85;3.03;;;;;;;;;;5063469;28;20218;-74
2023/07/02 13:30:25;;;;;;;5.53;3.05;;;;;;;;;;5081141;28;20228;-74
2023/07/02 13:32:53;;;;;;;5.25;2.75;;;;;;;;;;5092400;28;20213;-73
2023/07/02 13:35:22;;;;;;;5.40;2.92;;;;;;;;;;5042689;28;20715;-73
2023/07/02 13:37:48;;;;;;;5.55;3.20;;;;;;;;;;5070140;28;20229;-73
2023/07/02 13:40:15;;;;;;;6.28;3.35;;;;;;;;;;5096848;28;20222;-73
2023/07/02 13:42:41;;;;;;;6.05;3.17;;;;;;;;;;5075285;28;20225;-73
2023/07/02 13:45:08;;;;;;;4.43;3.35;;;;;;;;;;5073450;28;20226;-74
2023/07/02 13:47:36;;;;;;;3.83;2.90;;;;;;;;;;5058134;28;20234;-73
2023/07/02 13:50:05;;;;;;;5.90;3.33;;;;;;;;;;5064188;28;20225;-74
2023/07/02 13:52:32;;;;;;;5.95;3.88;;;;;;;;;;5093074;28;20231;-74
2023/07/02 13:55:00;;;;;;;6.07;3.38;;;;;;;;;;5049875;28;20225;-75
2023/07/02 13:57:26;;;;;;;3.55;2.90;;;;;;;;;;5075754;28;20222;-74
2023/07/02 13:59:51;;;;;;;6.28;3.17;;;;;;;;;;5077214;28;20222;-74
2023/07/02 14:02:18;;;;;;;7.18;3.53;;;;;;;;;;5058422;28;20225;-74
2023/07/02 14:04:43;;;;;;;5.28;3.33;;;;;;;;;;5058958;28;20256;-73
2023/07/02 14:07:13;;;;;;;7.72;3.92;;;;;;;;;;5061527;28;20775;-74
2023/07/02 14:09:41;;;;;;;6.28;3.72;;;;;;;;;;5055278;28;20314;-73
2023/07/02 14:12:11;;;;;;;4.35;3.15;;;;;;;;;;5066470;28;20228;-73
2023/07/02 14:14:46;;;;;;;5.70;3.38;;;;;;;;;;5073818;28;20246;-73
2023/07/02 14:17:15;;;;;;;5.70;3.60;;;;;;;;;;5066061;28;20820;-73
2023/07/02 14:19:45;;;;;;;5.03;3.80;;;;;;;;;;5061006;28;20278;-73
2023/07/02 14:22:10;;;;;;;4.28;3.13;;;;;;;;;;5047428;28;20305;-73
2023/07/02 14:24:36;;;;;;;9.55;4.10;;;;;;;;;;5077077;28;20215;-73
2023/07/02 14:27:02;;;;;;;7.15;3.60;;;;;;;;;;5059057;28;20215;-73
2023/07/02 14:29:29;;;;;;;4.82;3.20;;;;;;;;;;5095965;28;20234;-74
2023/07/02 14:32:00;;;;;;;8.45;3.42;;;;;;;;;;5067746;28;20214;-72
2023/07/02 14:34:28;;;;;;;4.88;2.92;;;;;;;;;;5080999;28;20317;-73
2023/07/02 14:36:54;;;;;;;10.65;3.30;;;;;;;;;;5063488;28;20233;-73
2023/07/02 14:39:22;;;;;;;5.68;3.47;;;;;;;;;;5089939;28;20278;-73
2023/07/02 14:41:51;;;;;;;6.38;3.58;;;;;;;;;;5100168;28;20845;-74
2023/07/02 14:44:18;;;;;;;5.50;3.03;;;;;;;;;;5046324;28;20215;-73
2023/07/02 14:46:44;;;;;;;5.88;3.30;;;;;;;;;;5045600;28;20263;-73
2023/07/02 14:49:12;;;;;;;6.85;3.50;;;;;;;;;;5078458;28;20226;-75
2023/07/02 14:51:37;;;;;;;6.10;3.70;;;;;;;;;;5076024;28;20237;-74
2023/07/02 14:54:03;;;;;;;6.55;3.13;;;;;;;;;;5101994;28;20230;-75
2023/07/02 14:56:29;;;;;;;4.57;3.38;;;;;;;;;;5081176;28;20221;-73
2023/07/02 14:58:55;;;;;;;4.38;2.97;;;;;;;;;;5097610;28;20321;-74
2023/07/02 15:01:21;;;;;;;5.43;3.35;;;;;;;;;;5066094;28;20256;-72
2023/07/02 15:03:47;;;;;;;6.13;3.25;;;;;;;;;;5042875;28;20214;-73
2023/07/02 15:06:16;;;;;;;5.75;3.25;;;;;;;;;;5073183;28;20225;-73
2023/07/02 15:08:42;;;;;;;6.13;3.60;;;;;;;;;;5057500;28;20233;-73
2023/07/02 15:11:08;;;;;;;7.63;3.45;;;;;;;;;;5061311;28;20218;-74
2023/07/02 15:13:37;;;;;;;5.90;3.70;;;;;;;;;;5065103;28;20223;-73
2023/07/02 15:16:12;;;;;;;5.40;3.25;;;;;;;;;;5073658;28;20226;-73
2023/07/02 15:18:37;;;;;;;5.13;3.28;;;;;;;;;;5043352;28;20675;-72
2023/07/02 15:21:03;;;;;;;4.35;3.20;;;;;;;;;;5087026;28;20214;-74
2023/07/02 15:23:31;;;;;;;7.95;3.40;;;;;;;;;;5082774;28;20232;-74
2023/07/02 15:25:58;;;;;;;6.95;3.75;;;;;;;;;;5047797;28;20225;-74
2023/07/02 15:28:24;;;;;;;5.80;3.88;;;;;;;;;;5047453;28;20596;-73
2023/07/02 15:30:56;;;;;;;5.97;3.60;;;;;;;;;;5046913;28;20231;-73
2023/07/02 15:33:22;;;;;;;6.05;3.53;;;;;;;;;;5075986;28;20328;-73
2023/07/02 15:35:48;;;;;;;4.90;3.42;;;;;;;;;;5058936;28;20215;-74
2023/07/02 15:38:13;;;;;;;5.45;3.58;;;;;;;;;;5050154;28;20221;-73
2023/07/02 15:40:39;;;;;;;5.65;3.55;;;;;;;;;;5051154;28;20232;-74
2023/07/02 15:43:09;;;;;;;6.68;3.85;;;;;;;;;;5080718;28;20733;-73
2023/07/02 15:45:34;;;;;;;5.28;3.45;;;;;;;;;;5082823;28;20240;-73
2023/07/02 15:48:02;;;;;;;6.00;3.75;;;;;;;;;;5043253;28;20206;-73
2023/07/02 15:50:28;;;;;;;7.25;3.17;;;;;;;;;;5077103;28;20223;-72
2023/07/02 15:52:58;;;;;;;10.07;3.92;;;;;;;;;;5065415;28;20222;-73
2023/07/02 15:55:23;;;;;;;5.57;3.70;;;;;;;;;;5077817;28;20237;-73
2023/07/02 15:57:51;;;;;;;5.22;3.17;;;;;;;;;;5052055;28;20310;-73
2023/07/02 16:00:20;;;;;;;5.35;3.58;;;;;;;;;;5088609;27;20587;-73
2023/07/02 16:02:47;;;;;;;5.40;3.83;;;;;;;;;;5052359;28;20223;-72
2023/07/02 16:05:15;;;;;;;7.50;3.70;;;;;;;;;;5075018;28;20222;-72
2023/07/02 16:07:41;;;;;;;5.95;3.53;;;;;;;;;;5082463;28;20712;-73
2023/07/02 16:10:12;;;;;;;6.22;3.30;;;;;;;;;;5084377;28;20291;-73
2023/07/02 16:12:39;;;;;;;5.57;3.60;;;;;;;;;;5082317;28;20414;-73
2023/07/02 16:15:05;;;;;;;6.18;3.95;;;;;;;;;;5083606;28;20233;-73
2023/07/02 16:17:31;;;;;;;6.35;3.70;;;;;;;;;;5057879;28;20227;-71
2023/07/02 16:19:57;;;;;;;3.72;2.92;;;;;;;;;;5061396;28;20210;-73
2023/07/02 16:22:22;;;;;;;7.38;3.15;;;;;;;;;;5048673;28;20395;-72
2023/07/02 16:24:50;;;;;;;6.97;3.50;;;;;;;;;;5057787;28;20717;-72
2023/07/02 16:27:18;;;;;;;6.07;3.45;;;;;;;;;;5091193;28;20218;-74
2023/07/02 16:29:44;;;;;;;5.75;3.53;;;;;;;;;;5045963;28;20715;-74
2023/07/02 16:32:13;;;;;;;4.78;3.22;;;;;;;;;;5061576;28;20225;-74
2023/07/02 16:34:41;;;;;;;7.72;3.47;;;;;;;;;;5055803;28;20225;-74
2023/07/02 16:37:06;;;;;;;9.25;3.50;;;;;;;;;;5062277;28;22333;-73
2023/07/02 16:39:37;;;;;;;5.68;3.67;;;;;;;;;;5069204;28;20708;-74
2023/07/02 16:42:06;;;;;;;13.10;3.70;;;;;;;;;;5062057;28;20218;-74
2023/07/02 16:44:35;;;;;;;3.72;3.15;;;;;;;;;;5088379;28;20591;-74
2023/07/02 16:47:03;;;;;;;6.03;3.25;;;;;;;;;;5096510;28;20217;-74
2023/07/02 16:49:33;;;;;;;4.20;3.00;;;;;;;;;;5066706;28;20247;-72
2023/07/02 16:52:01;;;;;;;4.53;3.22;;;;;;;;;;5063735;28;20226;-73
2023/07/02 16:54:29;;;;;;;4.90;3.60;;;;;;;;;;5076768;28;20239;-72
2023/07/02 16:56:57;;;;;;;4.03;2.83;;;;;;;;;;5079906;28;20214;-72
2023/07/02 16:59:23;;;;;;;6.43;3.38;;;;;;;;;;5058519;28;20707;-73
2023/07/02 17:01:57;;;;;;;6.60;2.83;;;;;;;;;;5065209;28;20211;-72
2023/07/02 17:04:24;;;;;;;4.45;3.10;;;;;;;;;;5060676;28;20229;-73
2023/07/02 17:06:54;;;;;;;3.88;2.80;;;;;;;;;;5064611;28;20230;-73
2023/07/02 17:09:32;;;;;;;3.75;2.90;;;;;;;;;;5045252;28;20206;-73
2023/07/02 17:11:59;;;;;;;6.03;2.97;;;;;;;;;;5082791;28;20225;-74
2023/07/02 17:14:30;;;;;;;5.82;3.40;;;;;;;;;;5074835;28;20256;-73
2023/07/02 17:17:01;;;;;;;4.55;2.70;;;;;;;;;;5072016;22;20226;-83
2023/07/02 17:19:35;;;;;;;5.28;3.08;;;;;;;;;;5038819;28;20222;-85
2023/07/02 17:22:03;;;;;;;4.22;2.88;;;;;;;;;;5052658;28;20286;-84
2023/07/02 17:24:33;;;;;;;4.55;2.65;;;;;;;;;;5049660;28;20278;-82
2023/07/02 17:27:01;;;;;;;5.60;3.10;;;;;;;;;;5041768;28;20224;-83
2023/07/02 17:29:32;;;;;;;4.85;2.90;;;;;;;;;;5060109;28;20210;-84
2023/07/02 17:32:00;;;;;;;6.72;3.22;;;;;;;;;;5025080;28;20229;-86
2023/07/02 17:34:26;;;;;;;3.95;2.90;;;;;;;;;;5041788;28;20230;-85
2023/07/02 17:36:54;;;;;;;5.13;3.22;;;;;;;;;;5037689;28;20222;-83
2023/07/02 17:39:22;;;;;;;5.65;3.30;;;;;;;;;;5042667;28;20214;-85
2023/07/02 17:41:53;;;;;;;3.78;3.20;;;;;;;;;;5050242;28;20313;-84
2023/07/02 17:44:26;;;;;;;5.90;3.58;;;;;;;;;;5041936;28;20210;-84
2023/07/02 17:46:56;;;;;;;5.50;3.50;;;;;;;;;;5037617;28;20219;-87
2023/07/02 17:49:23;;;;;;;5.63;3.03;;;;;;;;;;5036854;28;20608;-86
2023/07/02 17:51:49;;;;;;;6.35;3.67;;;;;;;;;;5043804;28;20214;-85
2023/07/02 17:54:15;;;;;;;4.15;3.33;;;;;;;;;;5036518;28;20220;-80
2023/07/02 17:56:50;;;;;;;7.03;3.63;;;;;;;;;;5049046;28;20242;-84
2023/07/02 17:59:26;;;;;;;5.10;3.60;;;;;;;;;;5049774;28;20308;-85
2023/07/02 18:01:54;;;;;;;4.85;3.67;;;;;;;;;;5049383;28;20227;-84
2023/07/02 18:04:22;;;;;;;7.88;4.28;;;;;;;;;;5075130;28;20257;-86
2023/07/02 18:06:48;;;;;;;8.55;3.80;;;;;;;;;;5051238;28;20214;-85
2023/07/02 18:09:14;;;;;;;4.97;3.33;;;;;;;;;;5031121;28;20238;-86
2023/07/02 18:11:40;;;;;;;5.07;3.33;;;;;;;;;;5041123;28;20221;-87
2023/07/02 18:14:05;;;;;;;4.40;3.53;;;;;;;;;;5041475;28;20280;-85
2023/07/02 18:16:33;;;;;;;5.18;3.65;;;;;;;;;;5048640;28;20247;-84
2023/07/02 18:18:59;;;;;;;5.00;3.60;;;;;;;;;;5041968;28;20312;-83
2023/07/02 18:21:25;;;;;;;5.53;3.35;;;;;;;;;;5044689;28;20226;-87
2023/07/02 18:23:52;;;;;;;8.32;4.00;;;;;;;;;;5058988;28;20215;-84
2023/07/02 18:26:18;;;;;;;5.38;3.55;;;;;;;;;;5045119;28;20270;-83
2023/07/02 18:28:46;;;;;;;7.75;3.50;;;;;;;;;;5058998;28;20227;-85
2023/07/02 18:31:11;;;;;;;5.30;3.22;;;;;;;;;;5058084;28;20226;-85
2023/07/02 18:33:37;;;;;;;5.93;3.30;;;;;;;;;;5062454;28;20501;-83
2023/07/02 18:36:09;;;;;;;5.82;3.33;;;;;;;;;;5070387;28;20212;-83
2023/07/02 18:38:37;;;;;;;5.18;3.70;;;;;;;;;;5054123;28;20230;-83
2023/07/02 18:41:05;;;;;;;6.50;3.30;;;;;;;;;;5042297;28;20226;-83
2023/07/02 18:43:31;;;;;;;6.20;3.47;;;;;;;;;;5039716;28;20710;-85
2023/07/02 18:45:57;;;;;;;8.45;3.90;;;;;;;;;;5040639;28;20215;-83
2023/07/02 18:48:25;;;;;;;5.30;3.47;;;;;;;;;;5063842;28;20590;-83
2023/07/02 18:50:50;;;;;;;10.60;3.65;;;;;;;;;;5047927;28;20222;-82
2023/07/02 18:53:18;;;;;;;4.78;3.67;;;;;;;;;;5029080;28;20293;-84
2023/07/02 18:55:59;;;;;;;6.10;3.80;;;;;;;;;;5032511;28;20222;-84
2023/07/02 18:58:25;;;;;;;4.72;3.22;;;;;;;;;;5064537;28;20219;-84
2023/07/02 19:00:51;;;;;;;6.72;3.72;;;;;;;;;;5031719;28;20788;-84
2023/07/02 19:03:19;;;;;;;6.47;3.78;;;;;;;;;;5062334;28;20314;-84
2023/07/02 19:05:45;;;;;;;4.43;3.28;;;;;;;;;;5060145;28;20272;-85
2023/07/02 19:08:11;;;;;;;5.82;3.70;;;;;;;;;;5045245;28;20217;-87
2023/07/02 19:10:37;;;;;;;5.13;3.70;;;;;;;;;;5028907;28;20690;-88
2023/07/02 19:13:02;;;;;;;5.65;3.70;;;;;;;;;;5052837;28;20215;-86
2023/07/02 19:15:30;;;;;;;6.57;3.45;;;;;;;;;;5042315;28;20225;-88
2023/07/02 19:17:58;;;;;;;4.25;3.55;;;;;;;;;;5031038;28;20221;-86
2023/07/02 19:20:27;;;;;;;5.38;3.65;;;;;;;;;;5044568;28;20282;-88
2023/07/02 19:22:55;;;;;;;6.18;3.50;;;;;;;;;;5047906;28;20682;-86
2023/07/02 19:25:24;;;;;;;6.07;3.55;;;;;;;;;;5049982;28;20206;-84
2023/07/02 19:27:53;;;;;;;5.53;3.42;;;;;;;;;;5032313;28;20210;-84
2023/07/02 19:30:18;;;;;;;8.65;3.70;;;;;;;;;;5041862;28;20245;-86
2023/07/02 19:32:44;;;;;;;5.75;3.33;;;;;;;;;;5047574;28;20700;-86
2023/07/02 19:35:10;;;;;;;5.60;3.53;;;;;;;;;;5047966;28;20279;-85
2023/07/02 19:37:36;;;;;;;5.95;3.50;;;;;;;;;;5036976;28;20282;-86
2023/07/02 19:40:06;;;;;;;5.35;3.65;;;;;;;;;;5028360;28;20222;-87
2023/07/02 19:42:34;;;;;;;5.82;3.80;;;;;;;;;;5018941;28;20330;-87
2023/07/02 19:45:05;;;;;;;4.55;3.47;;;;;;;;;;5032564;28;20585;-85
2023/07/02 19:47:33;;;;;;;7.88;3.78;;;;;;;;;;5023169;28;20218;-88
2023/07/02 19:50:01;;;;;;;6.00;3.50;;;;;;;;;;5028745;28;20661;-87
2023/07/02 19:52:32;;;;;;;5.88;3.78;;;;;;;;;;5055330;28;20216;-84
2023/07/02 19:55:10;;;;;;;5.85;3.58;;;;;;;;;;5029368;28;20260;-84
2023/07/02 19:57:38;;;;;;;5.70;3.67;;;;;;;;;;5035457;28;20218;-87
2023/07/02 20:00:08;;;;;;;5.53;3.22;;;;;;;;;;5024462;28;20227;-87
2023/07/02 20:02:37;;;;;;;5.05;3.17;;;;;;;;;;5051974;28;20223;-85
2023/07/02 20:05:05;;;;;;;8.50;3.60;;;;;;;;;;5026402;28;20218;-86
2023/07/02 20:07:31;;;;;;;5.78;3.50;;;;;;;;;;5038424;28;20215;-87
2023/07/02 20:09:57;;;;;;;7.80;3.55;;;;;;;;;;5033392;28;20603;-84
2023/07/02 20:12:27;;;;;;;5.05;3.45;;;;;;;;;;5043117;28;20219;-83
2023/07/02 20:14:56;;;;;;;6.50;3.83;;;;;;;;;;5052595;28;20237;-86
2023/07/02 20:17:25;;;;;;;7.43;3.70;;;;;;;;;;5023140;28;20290;-88
2023/07/02 20:19:52;;;;;;;7.95;4.28;;;;;;;;;;5043686;28;20222;-86
2023/07/02 20:22:18;;;;;;;3.55;3.20;;;;;;;;;;5030825;28;20696;-89
2023/07/02 20:24:46;;;;;;;6.20;3.42;;;;;;;;;;5017505;28;20246;-86
2023/07/02 20:27:13;;;;;;;4.45;3.38;;;;;;;;;;5039515;28;20685;-87
2023/07/02 20:29:43;;;;;;;6.50;3.80;;;;;;;;;;5043062;28;20262;-84
2023/07/02 20:32:09;;;;;;;5.68;3.83;;;;;;;;;;5041440;28;20203;-84
2023/07/02 20:34:36;;;;;;;5.32;3.40;;;;;;;;;;5026649;28;20222;-88
2023/07/02 20:37:04;;;;;;;6.93;4.00;;;;;;;;;;5022212;28;20241;-85
2023/07/02 20:39:30;;;;;;;6.55;3.60;;;;;;;;;;5042010;28;20211;-84
2023/07/02 20:41:58;;;;;;;6.97;3.60;;;;;;;;;;5035251;28;20624;-86
2023/07/02 20:44:23;;;;;;;6.63;4.00;;;;;;;;;;5024793;28;20680;-88
2023/07/02 20:46:49;;;;;;;4.35;3.58;;;;;;;;;;5002009;28;20218;-86
2023/07/02 20:49:20;;;;;;;9.73;3.95;;;;;;;;;;5020893;28;20956;-87
2023/07/02 20:51:46;;;;;;;6.80;3.90;;;;;;;;;;5014727;28;20291;-87
2023/07/02 20:54:17;;;;;;;6.78;3.97;;;;;;;;;;5038147;28;20223;-85
2023/07/02 20:56:43;;;;;;;7.07;3.95;;;;;;;;;;5040221;28;20594;-86
2023/07/02 20:59:11;;;;;;;6.30;3.83;;;;;;;;;;5038830;28;20219;-85
2023/07/02 21:01:36;;;;;;;6.68;3.70;;;;;;;;;;5025529;28;20221;-87
2023/07/02 21:04:09;;;;;;;6.43;3.47;;;;;;;;;;5031475;28;20250;-87
2023/07/02 21:06:39;;;;;;;7.80;4.00;;;;;;;;;;5022412;28;20215;-86
2023/07/02 21:09:07;;;;;;;6.70;3.83;;;;;;;;;;5040546;28;20226;-88
2023/07/02 21:11:33;;;;;;;8.90;4.00;;;;;;;;;;5032624;28;20294;-87
2023/07/02 21:14:02;;;;;;;5.78;3.85;;;;;;;;;;5021735;28;20370;-86
2023/07/02 21:16:29;;;;;;;7.50;3.85;;;;;;;;;;5021084;28;20268;-87
2023/07/02 21:18:55;;;;;;;6.28;3.70;;;;;;;;;;5035489;28;20229;-87
2023/07/02 21:21:22;;;;;;;5.03;3.83;;;;;;;;;;5039763;28;20217;-87
2023/07/02 21:23:48;;;;;;;8.07;3.83;;;;;;;;;;5018186;28;20245;-86
2023/07/02 21:26:14;;;;;;;5.95;3.90;;;;;;;;;;5034754;28;20586;-86
2023/07/02 21:28:39;;;;;;;5.18;3.92;;;;;;;;;;5024871;28;20632;-86
2023/07/02 21:31:05;;;;;;;5.25;3.83;;;;;;;;;;5030572;28;20222;-87
2023/07/02 21:33:35;;;;;;;7.35;3.95;;;;;;;;;;5021291;28;20233;-86
2023/07/02 21:36:07;;;;;;;6.03;3.55;;;;;;;;;;5033632;28;20226;-87
2023/07/02 21:38:34;;;;;;;9.30;3.95;;;;;;;;;;5024448;28;20229;-87
2023/07/02 21:41:02;;;;;;;8.75;4.05;;;;;;;;;;5038182;28;20241;-87
2023/07/02 21:43:27;;;;;;;6.28;3.67;;;;;;;;;;5041761;28;20227;-86
2023/07/02 21:45:54;;;;;;;6.13;3.73;;;;;;;;;;5019766;28;20250;-86
2023/07/02 21:48:20;;;;;;;6.13;4.03;;;;;;;;;;5035230;28;20593;-87
2023/07/02 21:50:47;;;;;;;4.50;3.50;;;;;;;;;;5035387;28;20229;-88
2023/07/02 21:53:15;;;;;;;12.23;4.30;;;;;;;;;;5030048;28;20593;-88
2023/07/02 21:55:41;;;;;;;9.40;4.10;;;;;;;;;;5011262;28;20694;-87
2023/07/02 21:58:11;;;;;;;7.07;3.70;;;;;;;;;;5037666;28;20223;-86
2023/07/02 22:00:36;;;;;;;7.27;4.63;;;;;;;;;;5055638;28;20202;-88
2023/07/02 22:03:02;;;;;;;7.00;3.90;;;;;;;;;;5032583;28;20753;-86
2023/07/02 22:05:28;;;;;;;7.68;4.20;;;;;;;;;;5039698;28;20636;-86
2023/07/02 22:07:55;;;;;;;6.25;3.88;;;;;;;;;;5047919;28;20209;-87
2023/07/02 22:10:21;;;;;;;7.67;3.97;;;;;;;;;;5022757;28;20218;-87
2023/07/02 22:12:47;;;;;;;7.68;4.03;;;;;;;;;;5038064;28;20229;-88
2023/07/02 22:15:14;;;;;;;5.70;4.17;;;;;;;;;;5021687;28;20230;-88
2023/07/02 22:17:42;;;;;;;6.60;4.23;;;;;;;;;;5036470;28;20244;-87
2023/07/02 22:20:16;;;;;;;9.37;4.03;;;;;;;;;;5035530;28;20230;-87
2023/07/02 22:22:41;;;;;;;6.07;3.93;;;;;;;;;;5049803;28;20225;-87
2023/07/02 22:25:08;;;;;;;7.87;4.03;;;;;;;;;;5034182;28;20223;-88
2023/07/02 22:27:34;;;;;;;7.70;4.17;;;;;;;;;;5037982;28;20243;-87
2023/07/02 22:30:04;;;;;;;7.80;4.53;;;;;;;;;;5034471;28;20241;-85
2023/07/02 22:32:31;;;;;;;8.60;4.50;;;;;;;;;;5059956;28;20226;-85
2023/07/02 22:34:56;;;;;;;8.23;4.40;;;;;;;;;;5063260;28;20249;-85
2023/07/02 22:37:22;;;;;;;7.07;4.20;;;;;;;;;;5059052;28;20226;-85
2023/07/02 22:39:47;;;;;;;10.25;4.35;;;;;;;;;;5041026;28;20230;-85
2023/07/02 22:42:13;;;;;;;5.38;4.22;;;;;;;;;;5071789;28;20223;-88
2023/07/02 22:44:39;;;;;;;7.15;4.35;;;;;;;;;;5033305;28;20229;-89
2023/07/02 22:47:04;;;;;;;10.03;4.27;;;;;;;;;;5025974;28;20697;-87
2023/07/02 22:49:32;;;;;;;5.43;4.00;;;;;;;;;;5024901;28;20249;-88
2023/07/02 22:52:02;;;;;;;7.77;4.40;;;;;;;;;;5042432;28;20725;-87
2023/07/02 22:54:28;;;;;;;7.10;4.30;;;;;;;;;;5037626;28;20596;-88
2023/07/02 22:56:58;;;;;;;7.97;4.63;;;;;;;;;;5026019;28;20202;-88
2023/07/02 22:59:24;;;;;;;9.27;4.70;;;;;;;;;;5044983;28;20214;-86
2023/07/02 23:01:50;;;;;;;4.83;3.73;;;;;;;;;;5020625;28;20215;-87
2023/07/02 23:04:16;;;;;;;6.83;4.37;;;;;;;;;;5025406;28;20222;-87
2023/07/02 23:06:43;;;;;;;6.80;4.17;;;;;;;;;;5048140;28;20210;-87
2023/07/02 23:09:11;;;;;;;6.67;4.40;;;;;;;;;;5045428;28;20214;-88
2023/07/02 23:11:37;;;;;;;7.22;4.40;;;;;;;;;;5009782;28;20285;-87
2023/07/02 23:14:03;;;;;;;6.83;4.37;;;;;;;;;;5042856;28;20273;-86
2023/07/02 23:16:28;;;;;;;8.17;4.33;;;;;;;;;;5051297;28;20220;-87
2023/07/02 23:18:56;;;;;;;8.80;4.50;;;;;;;;;;5028521;28;20242;-89
2023/07/02 23:21:22;;;;;;;6.97;4.20;;;;;;;;;;5024155;28;20217;-87
2023/07/02 23:23:47;;;;;;;7.93;4.60;;;;;;;;;;5020552;28;20218;-86
2023/07/02 23:26:17;;;;;;;6.10;4.43;;;;;;;;;;5056474;28;20229;-88
2023/07/02 23:28:58;;;;;;;4.80;3.80;;;;;;;;;;5025769;28;20225;-87
2023/07/02 23:31:25;;;;;;;6.03;4.67;;;;;;;;;;5026585;28;20218;-88
2023/07/02 23:33:51;;;;;;;7.00;4.67;;;;;;;;;;5034291;28;20285;-87
2023/07/02 23:36:21;;;;;;;8.00;4.63;;;;;;;;;;5045680;28;20241;-87
2023/07/02 23:38:50;;;;;;;6.83;4.60;;;;;;;;;;5041522;28;20236;-86
2023/07/02 23:41:18;;;;;;;6.50;4.40;;;;;;;;;;5036380;28;20241;-87
2023/07/02 23:43:43;;;;;;;11.03;4.80;;;;;;;;;;5064725;28;20229;-88
2023/07/02 23:46:09;;;;;;;5.90;4.33;;;;;;;;;;5043041;28;20226;-88
2023/07/02 23:48:35;;;;;;;9.57;4.80;;;;;;;;;;5041087;28;20214;-88
2023/07/02 23:51:00;;;;;;;7.10;4.50;;;;;;;;;;5051954;28;20669;-88
2023/07/02 23:53:28;;;;;;;7.40;4.27;;;;;;;;;;5050358;28;20206;-85
2023/07/02 23:55:56;;;;;;;6.83;4.77;;;;;;;;;;5084246;28;20222;-84
2023/07/02 23:58:24;;;;;;;5.97;4.38;;;;;;;;;;5043481;28;20218;-83
